sensor_id;sensor_type;location;lat;lon;timestamp;P1;durP1;ratioP1;P2;durP2;ratioP2
8421;SDS011;4248;48.196;10.924;2023-02-28T00:00:23;3.58;;;2.05;;
8421;SDS011;4248;48.196;10.924;2023-02-28T00:02:49;3.03;;;2.25;;
8421;SDS011;4248;48.196;10.924;2023-02-28T00:05:16;2.78;;;1.60;;
8421;SDS011;4248;48.196;10.924;2023-02-28T00:07:43;3.65;;;2.30;;
8421;SDS011;4248;48.196;10.924;2023-02-28T00:10:10;5.07;;;2.20;;
8421;SDS011;4248;48.196;10.924;2023-02-28T00:12:38;6.00;;;2.00;;
8421;SDS011;4248;48.196;10.924;2023-02-28T00:15:05;4.53;;;2.38;;
8421;SDS011;4248;48.196;10.924;2023-02-28T00:17:34;2.72;;;2.10;;
8421;SDS011;4248;48.196;10.924;2023-02-28T00:20:00;4.57;;;2.13;;
8421;SDS011;4248;48.196;10.924;2023-02-28T00:22:26;4.25;;;1.70;;
8421;SDS011;4248;48.196;10.924;2023-02-28T00:24:52;4.50;;;1.80;;
8421;SDS011;4248;48.196;10.924;2023-02-28T00:27:18;4.30;;;2.47;;
8421;SDS011;4248;48.196;10.924;2023-02-28T00:29:43;9.20;;;2.50;;
8421;SDS011;4248;48.196;10.924;2023-02-28T00:32:11;6.15;;;2.45;;
8421;SDS011;4248;48.196;10.924;2023-02-28T00:34:37;2.57;;;2.03;;
8421;SDS011;4248;48.196;10.924;2023-02-28T00:37:04;6.53;;;2.10;;
8421;SDS011;4248;48.196;10.924;2023-02-28T00:39:34;4.03;;;1.80;;
8421;SDS011;4248;48.196;10.924;2023-02-28T00:42:01;4.00;;;2.60;;
8421;SDS011;4248;48.196;10.924;2023-02-28T00:44:27;6.63;;;2.40;;
8421;SDS011;4248;48.196;10.924;2023-02-28T00:46:53;4.25;;;1.95;;
8421;SDS011;4248;48.196;10.924;2023-02-28T00:49:20;6.28;;;2.70;;
8421;SDS011;4248;48.196;10.924;2023-02-28T00:51:46;4.60;;;2.37;;
8421;SDS011;4248;48.196;10.924;2023-02-28T00:54:11;2.97;;;2.03;;
8421;SDS011;4248;48.196;10.924;2023-02-28T00:56:37;3.10;;;2.40;;
8421;SDS011;4248;48.196;10.924;2023-02-28T00:59:03;8.33;;;2.17;;
8421;SDS011;4248;48.196;10.924;2023-02-28T01:01:28;4.30;;;2.70;;
8421;SDS011;4248;48.196;10.924;2023-02-28T01:03:54;5.33;;;2.50;;
8421;SDS011;4248;48.196;10.924;2023-02-28T01:06:20;3.50;;;2.00;;
8421;SDS011;4248;48.196;10.924;2023-02-28T01:08:45;4.73;;;2.30;;
8421;SDS011;4248;48.196;10.924;2023-02-28T01:11:12;11.70;;;2.10;;
8421;SDS011;4248;48.196;10.924;2023-02-28T01:13:40;3.45;;;2.35;;
8421;SDS011;4248;48.196;10.924;2023-02-28T01:16:06;4.57;;;2.42;;
8421;SDS011;4248;48.196;10.924;2023-02-28T01:18:32;4.77;;;2.10;;
8421;SDS011;4248;48.196;10.924;2023-02-28T01:20:57;3.60;;;2.10;;
8421;SDS011;4248;48.196;10.924;2023-02-28T01:23:23;3.67;;;2.30;;
8421;SDS011;4248;48.196;10.924;2023-02-28T01:25:49;5.22;;;2.30;;
8421;SDS011;4248;48.196;10.924;2023-02-28T01:28:16;5.05;;;2.33;;
8421;SDS011;4248;48.196;10.924;2023-02-28T01:30:42;3.10;;;2.13;;
8421;SDS011;4248;48.196;10.924;2023-02-28T01:33:07;3.57;;;2.73;;
8421;SDS011;4248;48.196;10.924;2023-02-28T01:35:33;3.10;;;2.17;;
8421;SDS011;4248;48.196;10.924;2023-02-28T01:38:00;3.83;;;2.38;;
8421;SDS011;4248;48.196;10.924;2023-02-28T01:40:26;4.43;;;2.20;;
8421;SDS011;4248;48.196;10.924;2023-02-28T01:42:51;5.10;;;2.63;;
8421;SDS011;4248;48.196;10.924;2023-02-28T01:45:27;5.77;;;2.83;;
8421;SDS011;4248;48.196;10.924;2023-02-28T01:48:00;3.55;;;2.10;;
8421;SDS011;4248;48.196;10.924;2023-02-28T01:50:29;5.47;;;2.85;;
8421;SDS011;4248;48.196;10.924;2023-02-28T01:53:00;3.45;;;2.42;;
8421;SDS011;4248;48.196;10.924;2023-02-28T01:55:28;3.95;;;2.72;;
8421;SDS011;4248;48.196;10.924;2023-02-28T01:57:56;4.63;;;2.60;;
8421;SDS011;4248;48.196;10.924;2023-02-28T02:00:26;4.13;;;2.90;;
8421;SDS011;4248;48.196;10.924;2023-02-28T02:02:54;4.70;;;2.50;;
8421;SDS011;4248;48.196;10.924;2023-02-28T02:05:23;4.05;;;2.50;;
8421;SDS011;4248;48.196;10.924;2023-02-28T02:07:55;4.10;;;2.40;;
8421;SDS011;4248;48.196;10.924;2023-02-28T02:23:57;6.47;;;2.80;;
8421;SDS011;4248;48.196;10.924;2023-02-28T02:29:02;4.15;;;3.17;;
8421;SDS011;4248;48.196;10.924;2023-02-28T02:37:29;5.53;;;2.63;;
8421;SDS011;4248;48.196;10.924;2023-02-28T02:40:19;5.95;;;2.75;;
8421;SDS011;4248;48.196;10.924;2023-02-28T02:42:54;5.95;;;3.08;;
8421;SDS011;4248;48.196;10.924;2023-02-28T02:45:34;3.78;;;2.67;;
8421;SDS011;4248;48.196;10.924;2023-02-28T02:48:05;4.97;;;3.08;;
8421;SDS011;4248;48.196;10.924;2023-02-28T02:50:54;3.25;;;2.22;;
8421;SDS011;4248;48.196;10.924;2023-02-28T02:53:23;5.50;;;3.10;;
8421;SDS011;4248;48.196;10.924;2023-02-28T02:55:55;4.65;;;2.53;;
8421;SDS011;4248;48.196;10.924;2023-02-28T02:58:24;11.77;;;5.53;;
8421;SDS011;4248;48.196;10.924;2023-02-28T03:00:55;8.65;;;4.60;;
8421;SDS011;4248;48.196;10.924;2023-02-28T03:03:24;4.63;;;2.50;;
8421;SDS011;4248;48.196;10.924;2023-02-28T03:05:59;4.28;;;3.15;;
8421;SDS011;4248;48.196;10.924;2023-02-28T03:08:26;4.50;;;2.80;;
8421;SDS011;4248;48.196;10.924;2023-02-28T03:10:57;4.32;;;3.05;;
8421;SDS011;4248;48.196;10.924;2023-02-28T03:29:53;6.55;;;3.40;;
8421;SDS011;4248;48.196;10.924;2023-02-28T03:32:23;5.40;;;2.90;;
8421;SDS011;4248;48.196;10.924;2023-02-28T03:35:00;7.53;;;3.28;;
8421;SDS011;4248;48.196;10.924;2023-02-28T03:37:31;5.32;;;2.58;;
8421;SDS011;4248;48.196;10.924;2023-02-28T03:40:07;3.85;;;2.33;;
8421;SDS011;4248;48.196;10.924;2023-02-28T03:42:39;4.57;;;3.00;;
8421;SDS011;4248;48.196;10.924;2023-02-28T03:45:13;7.50;;;2.83;;
8421;SDS011;4248;48.196;10.924;2023-02-28T03:48:00;6.25;;;3.20;;
8421;SDS011;4248;48.196;10.924;2023-02-28T03:50:54;5.88;;;3.25;;
8421;SDS011;4248;48.196;10.924;2023-02-28T03:54:06;4.70;;;2.65;;
8421;SDS011;4248;48.196;10.924;2023-02-28T03:56:19;4.95;;;3.10;;
8421;SDS011;4248;48.196;10.924;2023-02-28T03:59:06;5.25;;;3.20;;
8421;SDS011;4248;48.196;10.924;2023-02-28T04:04:08;6.57;;;3.60;;
8421;SDS011;4248;48.196;10.924;2023-02-28T04:06:35;11.27;;;4.45;;
8421;SDS011;4248;48.196;10.924;2023-02-28T04:09:01;6.53;;;4.40;;
8421;SDS011;4248;48.196;10.924;2023-02-28T04:14:18;7.82;;;3.53;;
8421;SDS011;4248;48.196;10.924;2023-02-28T04:16:44;8.60;;;4.17;;
8421;SDS011;4248;48.196;10.924;2023-02-28T04:19:10;8.80;;;3.97;;
8421;SDS011;4248;48.196;10.924;2023-02-28T04:21:39;7.10;;;3.95;;
8421;SDS011;4248;48.196;10.924;2023-02-28T04:24:16;7.75;;;4.22;;
8421;SDS011;4248;48.196;10.924;2023-02-28T04:26:45;7.35;;;4.50;;
8421;SDS011;4248;48.196;10.924;2023-02-28T04:29:12;5.03;;;3.92;;
8421;SDS011;4248;48.196;10.924;2023-02-28T04:31:40;8.55;;;4.00;;
8421;SDS011;4248;48.196;10.924;2023-02-28T04:34:05;6.17;;;3.73;;
8421;SDS011;4248;48.196;10.924;2023-02-28T04:36:31;8.90;;;4.45;;
8421;SDS011;4248;48.196;10.924;2023-02-28T04:38:57;8.73;;;4.80;;
8421;SDS011;4248;48.196;10.924;2023-02-28T04:41:23;7.03;;;3.80;;
8421;SDS011;4248;48.196;10.924;2023-02-28T04:43:48;7.30;;;4.00;;
8421;SDS011;4248;48.196;10.924;2023-02-28T04:46:15;9.05;;;4.30;;
8421;SDS011;4248;48.196;10.924;2023-02-28T04:48:42;6.38;;;4.63;;
8421;SDS011;4248;48.196;10.924;2023-02-28T04:51:10;8.93;;;5.20;;
8421;SDS011;4248;48.196;10.924;2023-02-28T04:53:37;10.52;;;4.80;;
8421;SDS011;4248;48.196;10.924;2023-02-28T04:56:04;7.57;;;4.60;;
8421;SDS011;4248;48.196;10.924;2023-02-28T04:58:31;7.72;;;5.00;;
8421;SDS011;4248;48.196;10.924;2023-02-28T05:01:04;6.70;;;4.45;;
8421;SDS011;4248;48.196;10.924;2023-02-28T05:03:38;10.43;;;5.30;;
8421;SDS011;4248;48.196;10.924;2023-02-28T05:06:07;5.18;;;4.00;;
8421;SDS011;4248;48.196;10.924;2023-02-28T05:08:36;9.18;;;5.05;;
8421;SDS011;4248;48.196;10.924;2023-02-28T05:11:02;7.18;;;4.85;;
8421;SDS011;4248;48.196;10.924;2023-02-28T05:13:29;11.70;;;5.57;;
8421;SDS011;4248;48.196;10.924;2023-02-28T05:15:55;7.60;;;4.70;;
8421;SDS011;4248;48.196;10.924;2023-02-28T05:18:21;8.77;;;5.22;;
8421;SDS011;4248;48.196;10.924;2023-02-28T05:20:47;8.47;;;5.17;;
8421;SDS011;4248;48.196;10.924;2023-02-28T05:23:12;8.70;;;5.17;;
8421;SDS011;4248;48.196;10.924;2023-02-28T05:25:39;8.30;;;5.40;;
8421;SDS011;4248;48.196;10.924;2023-02-28T05:28:05;9.43;;;5.80;;
8421;SDS011;4248;48.196;10.924;2023-02-28T05:30:31;9.75;;;5.82;;
8421;SDS011;4248;48.196;10.924;2023-02-28T05:32:57;8.13;;;5.13;;
8421;SDS011;4248;48.196;10.924;2023-02-28T05:35:24;10.13;;;6.05;;
8421;SDS011;4248;48.196;10.924;2023-02-28T05:37:50;7.43;;;4.93;;
8421;SDS011;4248;48.196;10.924;2023-02-28T05:40:15;7.13;;;4.20;;
8421;SDS011;4248;48.196;10.924;2023-02-28T05:42:42;9.50;;;5.72;;
8421;SDS011;4248;48.196;10.924;2023-02-28T05:45:08;8.65;;;4.70;;
8421;SDS011;4248;48.196;10.924;2023-02-28T05:47:34;11.73;;;5.93;;
8421;SDS011;4248;48.196;10.924;2023-02-28T05:50:00;10.98;;;7.10;;
8421;SDS011;4248;48.196;10.924;2023-02-28T05:52:27;10.37;;;6.50;;
8421;SDS011;4248;48.196;10.924;2023-02-28T05:54:54;13.65;;;7.00;;
8421;SDS011;4248;48.196;10.924;2023-02-28T05:57:20;10.73;;;6.70;;
8421;SDS011;4248;48.196;10.924;2023-02-28T05:59:46;12.63;;;7.13;;
8421;SDS011;4248;48.196;10.924;2023-02-28T06:02:12;9.73;;;6.20;;
8421;SDS011;4248;48.196;10.924;2023-02-28T06:04:39;9.77;;;6.07;;
8421;SDS011;4248;48.196;10.924;2023-02-28T06:07:06;10.90;;;5.53;;
8421;SDS011;4248;48.196;10.924;2023-02-28T06:09:32;10.45;;;6.90;;
8421;SDS011;4248;48.196;10.924;2023-02-28T06:11:59;14.83;;;6.80;;
8421;SDS011;4248;48.196;10.924;2023-02-28T06:14:25;12.57;;;6.63;;
8421;SDS011;4248;48.196;10.924;2023-02-28T06:16:51;10.03;;;6.40;;
8421;SDS011;4248;48.196;10.924;2023-02-28T06:19:17;9.53;;;6.77;;
8421;SDS011;4248;48.196;10.924;2023-02-28T06:21:42;12.27;;;5.63;;
8421;SDS011;4248;48.196;10.924;2023-02-28T06:24:08;12.07;;;7.10;;
8421;SDS011;4248;48.196;10.924;2023-02-28T06:26:35;13.13;;;7.35;;
8421;SDS011;4248;48.196;10.924;2023-02-28T06:29:01;12.15;;;6.85;;
8421;SDS011;4248;48.196;10.924;2023-02-28T06:31:27;10.75;;;7.43;;
8421;SDS011;4248;48.196;10.924;2023-02-28T06:33:54;10.07;;;6.90;;
8421;SDS011;4248;48.196;10.924;2023-02-28T06:36:20;10.55;;;6.35;;
8421;SDS011;4248;48.196;10.924;2023-02-28T06:38:46;14.27;;;7.40;;
8421;SDS011;4248;48.196;10.924;2023-02-28T06:41:16;12.07;;;7.50;;
8421;SDS011;4248;48.196;10.924;2023-02-28T06:43:42;11.68;;;7.18;;
8421;SDS011;4248;48.196;10.924;2023-02-28T06:46:10;13.18;;;6.22;;
8421;SDS011;4248;48.196;10.924;2023-02-28T06:48:38;12.25;;;7.68;;
8421;SDS011;4248;48.196;10.924;2023-02-28T06:51:05;13.63;;;7.38;;
8421;SDS011;4248;48.196;10.924;2023-02-28T06:53:31;11.60;;;6.82;;
8421;SDS011;4248;48.196;10.924;2023-02-28T06:55:57;10.73;;;6.45;;
8421;SDS011;4248;48.196;10.924;2023-02-28T06:58:23;11.67;;;7.90;;
8421;SDS011;4248;48.196;10.924;2023-02-28T07:00:50;13.53;;;8.40;;
8421;SDS011;4248;48.196;10.924;2023-02-28T07:03:17;12.70;;;7.00;;
8421;SDS011;4248;48.196;10.924;2023-02-28T07:05:44;11.98;;;6.55;;
8421;SDS011;4248;48.196;10.924;2023-02-28T07:08:10;10.60;;;6.32;;
8421;SDS011;4248;48.196;10.924;2023-02-28T07:10:37;15.35;;;7.90;;
8421;SDS011;4248;48.196;10.924;2023-02-28T07:13:03;11.10;;;6.28;;
8421;SDS011;4248;48.196;10.924;2023-02-28T07:15:30;13.27;;;7.82;;
8421;SDS011;4248;48.196;10.924;2023-02-28T07:17:56;13.87;;;8.47;;
8421;SDS011;4248;48.196;10.924;2023-02-28T07:20:22;14.00;;;8.70;;
8421;SDS011;4248;48.196;10.924;2023-02-28T07:22:48;15.52;;;6.95;;
8421;SDS011;4248;48.196;10.924;2023-02-28T07:25:20;11.93;;;7.75;;
8421;SDS011;4248;48.196;10.924;2023-02-28T07:27:46;10.43;;;6.00;;
8421;SDS011;4248;48.196;10.924;2023-02-28T07:30:12;12.53;;;6.60;;
8421;SDS011;4248;48.196;10.924;2023-02-28T07:32:38;11.17;;;7.17;;
8421;SDS011;4248;48.196;10.924;2023-02-28T07:35:04;15.37;;;8.03;;
8421;SDS011;4248;48.196;10.924;2023-02-28T07:37:29;15.02;;;9.07;;
8421;SDS011;4248;48.196;10.924;2023-02-28T07:39:56;14.02;;;7.70;;
8421;SDS011;4248;48.196;10.924;2023-02-28T07:42:22;15.63;;;7.00;;
8421;SDS011;4248;48.196;10.924;2023-02-28T07:44:48;15.57;;;8.60;;
8421;SDS011;4248;48.196;10.924;2023-02-28T07:47:13;27.80;;;15.00;;
8421;SDS011;4248;48.196;10.924;2023-02-28T07:49:39;17.87;;;9.10;;
8421;SDS011;4248;48.196;10.924;2023-02-28T07:52:05;12.23;;;8.60;;
8421;SDS011;4248;48.196;10.924;2023-02-28T07:54:32;16.92;;;10.27;;
8421;SDS011;4248;48.196;10.924;2023-02-28T07:56:58;14.07;;;8.90;;
8421;SDS011;4248;48.196;10.924;2023-02-28T07:59:24;12.10;;;7.07;;
8421;SDS011;4248;48.196;10.924;2023-02-28T08:01:49;13.73;;;7.70;;
8421;SDS011;4248;48.196;10.924;2023-02-28T08:04:18;15.80;;;8.57;;
8421;SDS011;4248;48.196;10.924;2023-02-28T08:06:44;15.25;;;8.75;;
8421;SDS011;4248;48.196;10.924;2023-02-28T08:09:10;14.20;;;9.05;;
8421;SDS011;4248;48.196;10.924;2023-02-28T08:11:36;16.83;;;9.18;;
8421;SDS011;4248;48.196;10.924;2023-02-28T08:14:02;16.07;;;9.80;;
8421;SDS011;4248;48.196;10.924;2023-02-28T08:16:27;17.37;;;10.67;;
8421;SDS011;4248;48.196;10.924;2023-02-28T08:18:53;14.70;;;9.50;;
8421;SDS011;4248;48.196;10.924;2023-02-28T08:21:19;16.55;;;9.10;;
8421;SDS011;4248;48.196;10.924;2023-02-28T08:23:47;16.50;;;7.78;;
8421;SDS011;4248;48.196;10.924;2023-02-28T08:26:13;14.40;;;9.52;;
8421;SDS011;4248;48.196;10.924;2023-02-28T08:28:39;17.52;;;10.35;;
8421;SDS011;4248;48.196;10.924;2023-02-28T08:31:09;17.00;;;10.00;;
8421;SDS011;4248;48.196;10.924;2023-02-28T08:33:36;23.00;;;10.77;;
8421;SDS011;4248;48.196;10.924;2023-02-28T08:36:04;14.07;;;9.77;;
8421;SDS011;4248;48.196;10.924;2023-02-28T08:38:30;14.85;;;9.30;;
8421;SDS011;4248;48.196;10.924;2023-02-28T08:40:59;9.10;;;6.50;;
8421;SDS011;4248;48.196;10.924;2023-02-28T08:43:27;14.75;;;8.52;;
8421;SDS011;4248;48.196;10.924;2023-02-28T08:45:54;15.45;;;8.50;;
8421;SDS011;4248;48.196;10.924;2023-02-28T08:48:22;19.02;;;9.60;;
8421;SDS011;4248;48.196;10.924;2023-02-28T08:53:24;17.67;;;9.50;;
8421;SDS011;4248;48.196;10.924;2023-02-28T08:56:00;13.10;;;7.27;;
8421;SDS011;4248;48.196;10.924;2023-02-28T08:58:30;11.82;;;7.30;;
8421;SDS011;4248;48.196;10.924;2023-02-28T09:00:56;17.40;;;11.02;;
8421;SDS011;4248;48.196;10.924;2023-02-28T09:03:22;14.97;;;8.57;;
8421;SDS011;4248;48.196;10.924;2023-02-28T09:06:07;14.70;;;9.23;;
8421;SDS011;4248;48.196;10.924;2023-02-28T09:08:33;15.13;;;9.25;;
8421;SDS011;4248;48.196;10.924;2023-02-28T09:10:59;11.97;;;7.40;;
8421;SDS011;4248;48.196;10.924;2023-02-28T09:13:26;14.07;;;7.13;;
8421;SDS011;4248;48.196;10.924;2023-02-28T09:15:52;15.15;;;10.05;;
8421;SDS011;4248;48.196;10.924;2023-02-28T09:18:22;11.75;;;8.00;;
8421;SDS011;4248;48.196;10.924;2023-02-28T09:20:47;14.73;;;8.93;;
8421;SDS011;4248;48.196;10.924;2023-02-28T09:23:13;14.13;;;8.30;;
8421;SDS011;4248;48.196;10.924;2023-02-28T09:25:44;13.10;;;8.70;;
8421;SDS011;4248;48.196;10.924;2023-02-28T09:28:12;14.10;;;8.57;;
8421;SDS011;4248;48.196;10.924;2023-02-28T09:30:39;14.27;;;9.18;;
8421;SDS011;4248;48.196;10.924;2023-02-28T09:33:04;17.93;;;9.43;;
8421;SDS011;4248;48.196;10.924;2023-02-28T09:35:30;12.10;;;7.63;;
8421;SDS011;4248;48.196;10.924;2023-02-28T09:37:58;12.87;;;8.20;;
8421;SDS011;4248;48.196;10.924;2023-02-28T09:40:24;15.02;;;8.25;;
8421;SDS011;4248;48.196;10.924;2023-02-28T09:42:52;14.90;;;8.80;;
8421;SDS011;4248;48.196;10.924;2023-02-28T09:45:22;16.20;;;8.82;;
8421;SDS011;4248;48.196;10.924;2023-02-28T09:47:52;13.77;;;8.77;;
8421;SDS011;4248;48.196;10.924;2023-02-28T09:50:33;16.98;;;8.35;;
8421;SDS011;4248;48.196;10.924;2023-02-28T09:53:05;14.70;;;9.00;;
8421;SDS011;4248;48.196;10.924;2023-02-28T09:55:51;13.10;;;8.00;;
8421;SDS011;4248;48.196;10.924;2023-02-28T09:58:41;15.52;;;8.50;;
8421;SDS011;4248;48.196;10.924;2023-02-28T10:07:02;16.73;;;9.73;;
8421;SDS011;4248;48.196;10.924;2023-02-28T10:09:42;16.30;;;8.90;;
8421;SDS011;4248;48.196;10.924;2023-02-28T10:12:10;17.77;;;9.80;;
8421;SDS011;4248;48.196;10.924;2023-02-28T10:14:37;16.23;;;9.80;;
8421;SDS011;4248;48.196;10.924;2023-02-28T10:17:13;23.58;;;13.10;;
8421;SDS011;4248;48.196;10.924;2023-02-28T10:20:01;16.67;;;10.50;;
8421;SDS011;4248;48.196;10.924;2023-02-28T10:22:53;15.18;;;9.30;;
8421;SDS011;4248;48.196;10.924;2023-02-28T10:25:35;12.75;;;8.55;;
8421;SDS011;4248;48.196;10.924;2023-02-28T10:28:09;17.15;;;9.25;;
8421;SDS011;4248;48.196;10.924;2023-02-28T10:30:37;24.50;;;12.20;;
8421;SDS011;4248;48.196;10.924;2023-02-28T10:33:42;23.35;;;12.55;;
8421;SDS011;4248;48.196;10.924;2023-02-28T10:36:01;20.70;;;11.80;;
8421;SDS011;4248;48.196;10.924;2023-02-28T10:38:31;19.02;;;9.93;;
8421;SDS011;4248;48.196;10.924;2023-02-28T10:41:26;17.88;;;9.30;;
8421;SDS011;4248;48.196;10.924;2023-02-28T10:46:57;17.38;;;9.73;;
8421;SDS011;4248;48.196;10.924;2023-02-28T10:49:24;12.63;;;8.23;;
8421;SDS011;4248;48.196;10.924;2023-02-28T10:51:56;13.30;;;8.65;;
8421;SDS011;4248;48.196;10.924;2023-02-28T10:54:32;15.75;;;9.15;;
8421;SDS011;4248;48.196;10.924;2023-02-28T10:57:17;16.33;;;9.20;;
8421;SDS011;4248;48.196;10.924;2023-02-28T10:59:44;28.38;;;13.40;;
8421;SDS011;4248;48.196;10.924;2023-02-28T11:02:53;23.38;;;10.98;;
8421;SDS011;4248;48.196;10.924;2023-02-28T11:05:01;16.98;;;9.80;;
8421;SDS011;4248;48.196;10.924;2023-02-28T11:07:27;17.00;;;9.70;;
8421;SDS011;4248;48.196;10.924;2023-02-28T11:09:57;15.83;;;9.40;;
8421;SDS011;4248;48.196;10.924;2023-02-28T11:12:25;12.07;;;7.82;;
8421;SDS011;4248;48.196;10.924;2023-02-28T11:14:58;13.63;;;8.25;;
8421;SDS011;4248;48.196;10.924;2023-02-28T11:17:28;12.07;;;8.23;;
8421;SDS011;4248;48.196;10.924;2023-02-28T11:19:57;15.35;;;9.50;;
8421;SDS011;4248;48.196;10.924;2023-02-28T11:22:28;13.50;;;9.30;;
8421;SDS011;4248;48.196;10.924;2023-02-28T11:24:58;14.75;;;9.60;;
8421;SDS011;4248;48.196;10.924;2023-02-28T11:29:55;13.40;;;8.60;;
8421;SDS011;4248;48.196;10.924;2023-02-28T11:32:22;12.13;;;8.60;;
8421;SDS011;4248;48.196;10.924;2023-02-28T11:35:00;19.05;;;11.07;;
8421;SDS011;4248;48.196;10.924;2023-02-28T11:37:35;15.55;;;10.27;;
8421;SDS011;4248;48.196;10.924;2023-02-28T11:40:04;14.60;;;8.53;;
8421;SDS011;4248;48.196;10.924;2023-02-28T11:45:26;18.70;;;10.10;;
8421;SDS011;4248;48.196;10.924;2023-02-28T11:48:17;19.00;;;9.75;;
8421;SDS011;4248;48.196;10.924;2023-02-28T11:56:03;13.27;;;7.63;;
8421;SDS011;4248;48.196;10.924;2023-02-28T12:07:18;12.38;;;8.18;;
8421;SDS011;4248;48.196;10.924;2023-02-28T12:18:39;14.20;;;8.80;;
8421;SDS011;4248;48.196;10.924;2023-02-28T12:28:49;16.10;;;8.80;;
8421;SDS011;4248;48.196;10.924;2023-02-28T12:33:46;15.63;;;9.00;;
8421;SDS011;4248;48.196;10.924;2023-02-28T12:36:17;15.83;;;9.23;;
8421;SDS011;4248;48.196;10.924;2023-02-28T12:47:11;16.27;;;8.23;;
8421;SDS011;4248;48.196;10.924;2023-02-28T12:52:21;17.85;;;9.65;;
8421;SDS011;4248;48.196;10.924;2023-02-28T12:57:55;13.73;;;8.23;;
8421;SDS011;4248;48.196;10.924;2023-02-28T13:00:25;12.90;;;7.60;;
8421;SDS011;4248;48.196;10.924;2023-02-28T13:10:46;13.73;;;8.10;;
8421;SDS011;4248;48.196;10.924;2023-02-28T13:13:19;16.53;;;8.97;;
8421;SDS011;4248;48.196;10.924;2023-02-28T13:18:28;10.93;;;7.27;;
8421;SDS011;4248;48.196;10.924;2023-02-28T13:20:56;20.27;;;8.30;;
8421;SDS011;4248;48.196;10.924;2023-02-28T13:26:17;14.63;;;8.23;;
8421;SDS011;4248;48.196;10.924;2023-02-28T13:31:14;13.47;;;8.20;;
8421;SDS011;4248;48.196;10.924;2023-02-28T13:38:47;17.13;;;7.80;;
8421;SDS011;4248;48.196;10.924;2023-02-28T13:44:00;13.00;;;7.93;;
8421;SDS011;4248;48.196;10.924;2023-02-28T13:46:27;15.83;;;9.10;;
8421;SDS011;4248;48.196;10.924;2023-02-28T13:48:52;14.20;;;8.53;;
8421;SDS011;4248;48.196;10.924;2023-02-28T13:54:16;12.93;;;8.80;;
8421;SDS011;4248;48.196;10.924;2023-02-28T13:59:37;13.60;;;8.43;;
8421;SDS011;4248;48.196;10.924;2023-02-28T14:05:18;12.45;;;8.35;;
8421;SDS011;4248;48.196;10.924;2023-02-28T14:07:54;13.40;;;8.40;;
8421;SDS011;4248;48.196;10.924;2023-02-28T14:10:30;14.40;;;8.60;;
8421;SDS011;4248;48.196;10.924;2023-02-28T14:16:02;14.67;;;8.30;;
8421;SDS011;4248;48.196;10.924;2023-02-28T14:18:31;13.50;;;7.90;;
8421;SDS011;4248;48.196;10.924;2023-02-28T14:29:28;14.83;;;8.40;;
8421;SDS011;4248;48.196;10.924;2023-02-28T14:32:27;14.00;;;8.80;;
8421;SDS011;4248;48.196;10.924;2023-02-28T14:37:50;11.90;;;7.87;;
8421;SDS011;4248;48.196;10.924;2023-02-28T14:40:25;15.00;;;8.33;;
8421;SDS011;4248;48.196;10.924;2023-02-28T14:43:00;15.50;;;7.57;;
8421;SDS011;4248;48.196;10.924;2023-02-28T14:45:43;13.03;;;8.20;;
8421;SDS011;4248;48.196;10.924;2023-02-28T14:48:15;14.10;;;8.67;;
8421;SDS011;4248;48.196;10.924;2023-02-28T14:50:47;15.13;;;8.20;;
8421;SDS011;4248;48.196;10.924;2023-02-28T14:53:16;14.27;;;9.23;;
8421;SDS011;4248;48.196;10.924;2023-02-28T14:55:45;13.17;;;8.20;;
8421;SDS011;4248;48.196;10.924;2023-02-28T15:01:02;11.80;;;7.50;;
8421;SDS011;4248;48.196;10.924;2023-02-28T15:03:36;13.67;;;8.17;;
8421;SDS011;4248;48.196;10.924;2023-02-28T15:06:04;14.17;;;8.37;;
8421;SDS011;4248;48.196;10.924;2023-02-28T15:08:38;17.60;;;9.37;;
8421;SDS011;4248;48.196;10.924;2023-02-28T15:11:04;16.00;;;8.67;;
8421;SDS011;4248;48.196;10.924;2023-02-28T15:13:38;14.87;;;8.50;;
8421;SDS011;4248;48.196;10.924;2023-02-28T15:16:10;15.77;;;9.00;;
8421;SDS011;4248;48.196;10.924;2023-02-28T15:19:00;13.23;;;9.00;;
8421;SDS011;4248;48.196;10.924;2023-02-28T15:21:31;13.83;;;8.23;;
8421;SDS011;4248;48.196;10.924;2023-02-28T15:26:41;14.37;;;8.40;;
8421;SDS011;4248;48.196;10.924;2023-02-28T15:29:14;15.83;;;8.87;;
8421;SDS011;4248;48.196;10.924;2023-02-28T15:31:45;11.40;;;7.70;;
8421;SDS011;4248;48.196;10.924;2023-02-28T15:34:22;14.73;;;8.67;;
8421;SDS011;4248;48.196;10.924;2023-02-28T15:39:56;13.40;;;8.10;;
8421;SDS011;4248;48.196;10.924;2023-02-28T15:42:29;19.03;;;8.43;;
8421;SDS011;4248;48.196;10.924;2023-02-28T15:44:56;19.63;;;9.80;;
8421;SDS011;4248;48.196;10.924;2023-02-28T15:47:25;13.50;;;7.88;;
8421;SDS011;4248;48.196;10.924;2023-02-28T15:50:05;14.20;;;8.70;;
8421;SDS011;4248;48.196;10.924;2023-02-28T15:52:44;13.30;;;8.10;;
8421;SDS011;4248;48.196;10.924;2023-02-28T15:55:21;12.07;;;6.37;;
8421;SDS011;4248;48.196;10.924;2023-02-28T15:57:52;15.57;;;8.25;;
8421;SDS011;4248;48.196;10.924;2023-02-28T16:00:24;14.70;;;8.73;;
8421;SDS011;4248;48.196;10.924;2023-02-28T16:02:50;16.23;;;8.73;;
8421;SDS011;4248;48.196;10.924;2023-02-28T16:05:18;15.50;;;7.80;;
8421;SDS011;4248;48.196;10.924;2023-02-28T16:07:53;13.48;;;8.10;;
8421;SDS011;4248;48.196;10.924;2023-02-28T16:10:21;20.77;;;9.18;;
8421;SDS011;4248;48.196;10.924;2023-02-28T16:12:52;13.07;;;8.27;;
8421;SDS011;4248;48.196;10.924;2023-02-28T16:15:28;13.25;;;8.50;;
8421;SDS011;4248;48.196;10.924;2023-02-28T16:17:56;20.83;;;9.80;;
8421;SDS011;4248;48.196;10.924;2023-02-28T16:20:29;13.38;;;8.95;;
8421;SDS011;4248;48.196;10.924;2023-02-28T16:22:56;13.73;;;8.37;;
8421;SDS011;4248;48.196;10.924;2023-02-28T16:25:44;14.98;;;8.48;;
8421;SDS011;4248;48.196;10.924;2023-02-28T16:28:21;14.48;;;8.52;;
8421;SDS011;4248;48.196;10.924;2023-02-28T16:30:59;14.85;;;9.00;;
8421;SDS011;4248;48.196;10.924;2023-02-28T16:33:28;17.07;;;9.57;;
8421;SDS011;4248;48.196;10.924;2023-02-28T16:35:56;16.40;;;9.38;;
8421;SDS011;4248;48.196;10.924;2023-02-28T16:38:21;20.10;;;9.98;;
8421;SDS011;4248;48.196;10.924;2023-02-28T16:40:50;23.63;;;11.15;;
8421;SDS011;4248;48.196;10.924;2023-02-28T16:43:20;16.17;;;10.00;;
8421;SDS011;4248;48.196;10.924;2023-02-28T16:45:52;16.15;;;9.52;;
8421;SDS011;4248;48.196;10.924;2023-02-28T16:48:23;16.20;;;10.45;;
8421;SDS011;4248;48.196;10.924;2023-02-28T16:50:50;18.80;;;11.00;;
8421;SDS011;4248;48.196;10.924;2023-02-28T16:53:16;76.53;;;31.97;;
8421;SDS011;4248;48.196;10.924;2023-02-28T16:55:41;85.17;;;39.33;;
8421;SDS011;4248;48.196;10.924;2023-02-28T16:58:10;127.60;;;48.10;;
8421;SDS011;4248;48.196;10.924;2023-02-28T17:00:39;331.35;;;131.70;;
8421;SDS011;4248;48.196;10.924;2023-02-28T17:03:05;72.67;;;35.27;;
8421;SDS011;4248;48.196;10.924;2023-02-28T17:05:43;40.30;;;21.88;;
8421;SDS011;4248;48.196;10.924;2023-02-28T17:08:09;27.03;;;13.77;;
8421;SDS011;4248;48.196;10.924;2023-02-28T17:10:35;17.88;;;11.65;;
8421;SDS011;4248;48.196;10.924;2023-02-28T17:13:01;18.43;;;11.50;;
8421;SDS011;4248;48.196;10.924;2023-02-28T17:15:27;18.57;;;11.20;;
8421;SDS011;4248;48.196;10.924;2023-02-28T17:17:52;17.47;;;9.73;;
8421;SDS011;4248;48.196;10.924;2023-02-28T17:20:19;16.77;;;9.83;;
8421;SDS011;4248;48.196;10.924;2023-02-28T17:22:49;17.70;;;10.90;;
8421;SDS011;4248;48.196;10.924;2023-02-28T17:25:16;19.67;;;12.05;;
8421;SDS011;4248;48.196;10.924;2023-02-28T17:27:42;21.87;;;12.20;;
8421;SDS011;4248;48.196;10.924;2023-02-28T17:32:43;21.80;;;12.52;;
8421;SDS011;4248;48.196;10.924;2023-02-28T17:35:09;27.50;;;14.13;;
8421;SDS011;4248;48.196;10.924;2023-02-28T17:37:35;27.90;;;14.60;;
8421;SDS011;4248;48.196;10.924;2023-02-28T17:40:00;25.17;;;14.10;;
8421;SDS011;4248;48.196;10.924;2023-02-28T17:42:26;23.50;;;13.93;;
8421;SDS011;4248;48.196;10.924;2023-02-28T17:44:51;30.97;;;14.70;;
8421;SDS011;4248;48.196;10.924;2023-02-28T17:47:17;27.60;;;13.10;;
8421;SDS011;4248;48.196;10.924;2023-02-28T17:49:43;25.33;;;14.40;;